Time;durP1;ratioP1;P1;durP2;ratioP2;P2;SDS_P1;SDS_P2;PMS_P1;PMS_P2;Temp;Humidity;BMP_temperature;BMP_pressure;BME280_temperature;BME280_humidity;BME280_pressure;Samples;Min_cycle;Max_cycle;Signal;HPM_P1;HPM_P2
2021/12/13 00:01:06;;;;;;;;;;;77.50;2227.20;;;;;;5036956;28;19958;-76
2021/12/13 00:03:38;;;;;;;;;;;77.70;2227.20;;;;;;5048566;28;19904;-76
2021/12/13 00:06:10;;;;;;;;;;;102.60;2227.20;;;;;;5052453;28;19905;-76
2021/12/13 00:08:37;;;;;;;;;;;102.60;2227.20;;;;;;5052369;28;20262;-78
2021/12/13 00:11:08;;;;;;;;;;;102.60;2227.20;;;;;;5051131;28;19996;-76
2021/12/13 00:13:38;;;;;;;;;;;102.60;2227.20;;;;;;5052216;28;20400;-76
2021/12/13 00:16:04;;;;;;;;;;;102.50;2227.20;;;;;;5052613;28;20270;-76
2021/12/13 00:18:32;;;;;;;;;;;102.60;2227.20;;;;;;5064938;28;19920;-76
2021/12/13 00:21:09;;;;;;;;;;;102.70;2227.20;;;;;;5072605;28;19948;-75
2021/12/13 00:23:43;;;;;;;;;;;102.60;2227.20;;;;;;5072244;28;19958;-75
2021/12/13 00:26:08;;;;;;;;;;;102.50;2227.20;;;;;;5072349;28;19909;-76
2021/12/13 00:28:37;;;;;;;;;;;102.50;2227.20;;;;;;5072522;28;20377;-76
2021/12/13 00:31:14;;;;;;;;;;;102.80;2227.20;;;;;;5071936;28;19914;-76
2021/12/13 00:34:03;;;;;;;;;;;102.90;2227.20;;;;;;5071030;28;19978;-76
2021/12/13 00:36:34;;;;;;;;;;;102.80;2227.20;;;;;;5030592;28;19905;-76
2021/12/13 00:39:10;;;;;;;;;;;102.50;2227.20;;;;;;5029849;28;19905;-78
2021/12/13 00:41:36;;;;;;;;;;;102.60;2227.20;;;;;;5030406;28;19917;-78
2021/12/13 00:44:14;;;;;;;;;;;102.50;2227.20;;;;;;5013635;28;19912;-77
2021/12/13 00:46:41;;;;;;;;;;;102.40;2227.20;;;;;;5030009;28;20915;-76
2021/12/13 00:49:08;;;;;;;;;;;102.60;2227.20;;;;;;5030281;28;19916;-77
2021/12/13 00:51:36;;;;;;;;;;;102.70;2227.20;;;;;;5013327;28;19943;-77
2021/12/13 00:54:22;;;;;;;;;;;102.50;2227.20;;;;;;5032696;28;19951;-76
2021/12/13 00:56:54;;;;;;;;;;;102.80;2227.20;;;;;;5016838;28;19905;-79
2021/12/13 00:59:19;;;;;;;;;;;103.00;2227.20;;;;;;5033740;28;19916;-76
2021/12/13 01:01:50;;;;;;;;;;;102.80;2227.20;;;;;;5033893;28;20282;-78
2021/12/13 01:04:15;;;;;;;;;;;102.90;2227.20;;;;;;5033582;28;19945;-78
2021/12/13 01:06:59;;;;;;;;;;;102.90;2227.20;;;;;;5033836;28;19909;-76
2021/12/13 01:09:43;;;;;;;;;;;103.10;2227.20;;;;;;5033565;28;19905;-78
2021/12/13 01:12:13;;;;;;;;;;;103.20;2227.20;;;;;;5033564;28;19913;-77
2021/12/13 01:14:46;;;;;;;;;;;103.30;2227.20;;;;;;5075407;28;19947;-78
2021/12/13 01:17:16;;;;;;;;;;;103.30;2227.20;;;;;;5073636;28;19966;-77
2021/12/13 01:22:31;;;;;;;;;;;102.80;2227.20;;;;;;5075628;28;19908;-76
2021/12/13 01:27:28;;;;;;;;;;;103.10;2227.20;;;;;;5075357;28;20346;-77
2021/12/13 01:29:53;;;;;;;;;;;103.00;2227.20;;;;;;5075372;28;19951;-78
2021/12/13 01:32:19;;;;;;;;;;;102.80;2227.20;;;;;;5075003;28;20392;-77
2021/12/13 01:34:45;;;;;;;;;;;102.70;2227.20;;;;;;5074004;28;19905;-76
2021/12/13 01:37:16;;;;;;;;;;;102.60;2227.20;;;;;;5073647;28;19909;-77
2021/12/13 01:39:43;;;;;;;;;;;102.40;2227.20;;;;;;5073939;28;19908;-76
2021/12/13 01:42:11;;;;;;;;;;;77.70;2227.20;;;;;;5073526;28;19908;-78
2021/12/13 01:44:41;;;;;;;;;;;77.70;2227.20;;;;;;5073796;28;19949;-78
2021/12/13 01:47:08;;;;;;;;;;;77.70;2227.20;;;;;;5073328;28;19908;-78
2021/12/13 01:49:39;;;;;;;;;;;77.60;2227.20;;;;;;5074633;28;19916;-77
2021/12/13 01:52:16;;;;;;;;;;;102.40;2227.20;;;;;;5074782;28;19919;-75
2021/12/13 01:54:42;;;;;;;;;;;102.40;2227.20;;;;;;5074124;28;19917;-77
2021/12/13 02:02:15;;;;;;;;;;;102.40;2227.20;;;;;;5074414;28;20328;-78
2021/12/13 02:04:42;;;;;;;;;;;77.70;2227.20;;;;;;5073615;28;19908;-78
2021/12/13 02:07:08;;;;;;;;;;;77.70;2227.20;;;;;;5074082;28;19904;-78
2021/12/13 02:09:36;;;;;;;;;;;102.60;2227.20;;;;;;5073216;28;19905;-78
2021/12/13 02:12:05;;;;;;;;;;;77.70;2227.20;;;;;;5072804;28;19970;-76
2021/12/13 02:14:33;;;;;;;;;;;102.60;2227.20;;;;;;5074675;28;19908;-79
2021/12/13 02:17:01;;;;;;;;;;;102.80;2227.20;;;;;;5072698;28;20350;-75
2021/12/13 02:19:31;;;;;;;;;;;102.80;2227.20;;;;;;5074027;28;20361;-76
2021/12/13 02:22:04;;;;;;;;;;;102.50;2227.20;;;;;;5073032;28;19904;-79
2021/12/13 02:24:30;;;;;;;;;;;102.50;2227.20;;;;;;5072951;28;19911;-76
2021/12/13 02:26:58;;;;;;;;;;;102.50;2227.20;;;;;;5073100;28;19905;-78
2021/12/13 02:29:34;;;;;;;;;;;102.60;2227.20;;;;;;5071892;28;19911;-76
2021/12/13 02:32:00;;;;;;;;;;;102.70;2227.20;;;;;;5072749;28;20366;-77
2021/12/13 02:34:29;;;;;;;;;;;102.60;2227.20;;;;;;5073849;28;19905;-78
2021/12/13 02:36:55;;;;;;;;;;;102.60;2227.20;;;;;;5072566;28;19904;-76
2021/12/13 02:39:26;;;;;;;;;;;102.60;2227.20;;;;;;5073744;28;19911;-78
2021/12/13 02:41:52;;;;;;;;;;;102.80;2227.20;;;;;;5073614;28;20365;-78
2021/12/13 02:44:22;;;;;;;;;;;102.80;2227.20;;;;;;5073934;28;19904;-77
2021/12/13 02:46:47;;;;;;;;;;;102.60;2227.20;;;;;;5073460;28;19908;-78
2021/12/13 02:49:15;;;;;;;;;;;102.70;2227.20;;;;;;5072552;28;20014;-76
2021/12/13 02:51:43;;;;;;;;;;;102.70;2227.20;;;;;;5072283;28;19978;-77
2021/12/13 02:54:21;;;;;;;;;;;102.80;2227.20;;;;;;5073312;28;19904;-78
2021/12/13 02:56:59;;;;;;;;;;;102.80;2227.20;;;;;;5072466;28;19958;-76
2021/12/13 02:59:26;;;;;;;;;;;102.50;2227.20;;;;;;5073363;28;19904;-76
2021/12/13 03:01:58;;;;;;;;;;;102.60;2227.20;;;;;;5073506;28;20234;-76
2021/12/13 03:04:25;;;;;;;;;;;102.60;2227.20;;;;;;5073543;28;19912;-76
2021/12/13 03:06:53;;;;;;;;;;;102.80;2227.20;;;;;;5073254;28;19908;-76
2021/12/13 03:09:20;;;;;;;;;;;102.50;2227.20;;;;;;5073301;28;19911;-78
2021/12/13 03:11:47;;;;;;;;;;;102.50;2227.20;;;;;;5072072;28;20013;-75
2021/12/13 03:14:16;;;;;;;;;;;102.60;2227.20;;;;;;5072029;28;19904;-75
2021/12/13 03:16:53;;;;;;;;;;;102.80;2227.20;;;;;;5071458;28;19904;-75
2021/12/13 03:19:27;;;;;;;;;;;102.90;2227.20;;;;;;5072746;28;20390;-76
2021/12/13 03:21:53;;;;;;;;;;;103.00;2227.20;;;;;;5073048;28;19912;-76
2021/12/13 03:24:48;;;;;;;;;;;102.90;2227.20;;;;;;5071642;28;20314;-78
2021/12/13 03:27:22;;;;;;;;;;;102.80;2227.20;;;;;;5030940;28;19911;-76
2021/12/13 03:29:50;;;;;;;;;;;103.00;2227.20;;;;;;5014666;28;19951;-77
2021/12/13 03:32:16;;;;;;;;;;;102.90;2227.20;;;;;;5014145;28;19916;-76
2021/12/13 03:34:52;;;;;;;;;;;102.70;2227.20;;;;;;5031061;28;19959;-78
2021/12/13 03:37:21;;;;;;;;;;;102.60;2227.20;;;;;;5014233;28;19913;-77
2021/12/13 03:39:55;;;;;;;;;;;102.60;2227.20;;;;;;5030684;28;20405;-76
2021/12/13 03:42:23;;;;;;;;;;;102.50;2227.20;;;;;;5030847;28;19906;-75
2021/12/13 03:44:51;;;;;;;;;;;102.70;2227.20;;;;;;5014174;28;20362;-78
2021/12/13 03:47:19;;;;;;;;;;;102.40;2227.20;;;;;;5030601;28;19916;-75
2021/12/13 03:49:47;;;;;;;;;;;102.70;2227.20;;;;;;5014056;28;19909;-78
2021/12/13 03:52:15;;;;;;;;;;;102.80;2227.20;;;;;;5014224;28;19983;-78
2021/12/13 03:54:41;;;;;;;;;;;102.70;2227.20;;;;;;5029900;28;19986;-77
2021/12/13 03:57:07;;;;;;;;;;;102.80;2227.20;;;;;;5030545;28;19905;-76
2021/12/13 03:59:34;;;;;;;;;;;102.50;2227.20;;;;;;5030896;28;19905;-77
2021/12/13 04:02:02;;;;;;;;;;;102.40;2227.20;;;;;;5030518;28;19913;-78
2021/12/13 04:04:34;;;;;;;;;;;102.50;2227.20;;;;;;5066068;28;20384;-78
2021/12/13 04:07:05;;;;;;;;;;;102.50;2227.20;;;;;;5071192;28;19904;-78
2021/12/13 04:09:30;;;;;;;;;;;102.50;2227.20;;;;;;5071522;28;19905;-78
2021/12/13 04:11:58;;;;;;;;;;;77.60;2227.20;;;;;;5071013;28;19939;-76
2021/12/13 04:14:28;;;;;;;;;;;77.70;2227.20;;;;;;5072442;28;19904;-76
2021/12/13 04:17:19;;;;;;;;;;;77.50;2227.20;;;;;;5072744;28;19936;-78
2021/12/13 04:19:58;;;;;;;;;;;77.60;2227.20;;;;;;5072565;28;19931;-77
2021/12/13 04:22:26;;;;;;;;;;;77.60;2227.20;;;;;;5072436;28;19946;-76
2021/12/13 04:24:59;;;;;;;;;;;77.60;2227.20;;;;;;5071299;28;20331;-75
2021/12/13 04:27:25;;;;;;;;;;;77.50;2227.20;;;;;;5071158;28;19951;-77
2021/12/13 04:29:52;;;;;;;;;;;77.40;2227.20;;;;;;5075305;28;19915;-75
2021/12/13 04:32:23;;;;;;;;;;;77.40;2227.20;;;;;;5074637;28;20373;-75
2021/12/13 04:34:51;;;;;;;;;;;102.40;2227.20;;;;;;5075182;28;19910;-78
2021/12/13 04:37:18;;;;;;;;;;;102.60;2227.20;;;;;;5075006;28;19911;-78
2021/12/13 04:39:44;;;;;;;;;;;102.60;2227.20;;;;;;5075926;28;19905;-77
2021/12/13 04:42:12;;;;;;;;;;;102.90;2227.20;;;;;;5074908;28;19927;-76
2021/12/13 04:44:50;;;;;;;;;;;103.00;2227.20;;;;;;5074834;28;20004;-77
2021/12/13 04:47:18;;;;;;;;;;;102.90;2227.20;;;;;;5075849;28;19904;-77
2021/12/13 04:49:48;;;;;;;;;;;102.60;2227.20;;;;;;5074558;28;19912;-77
2021/12/13 04:52:15;;;;;;;;;;;102.80;2227.20;;;;;;5074501;28;19928;-77
2021/12/13 04:54:43;;;;;;;;;;;102.50;2227.20;;;;;;5076076;28;19908;-76
2021/12/13 04:57:09;;;;;;;;;;;102.70;2227.20;;;;;;5074581;28;19908;-77
2021/12/13 04:59:35;;;;;;;;;;;102.80;2227.20;;;;;;5075946;28;20278;-76
2021/12/13 05:02:03;;;;;;;;;;;102.90;2227.20;;;;;;5074320;28;19936;-76
2021/12/13 05:04:29;;;;;;;;;;;102.80;2227.20;;;;;;5074677;28;20365;-76
2021/12/13 05:06:56;;;;;;;;;;;102.80;2227.20;;;;;;5074724;28;20255;-77
2021/12/13 05:09:22;;;;;;;;;;;102.70;2227.20;;;;;;5074986;28;20350;-78
2021/12/13 05:11:51;;;;;;;;;;;102.80;2227.20;;;;;;5074124;28;20350;-78
2021/12/13 05:14:27;;;;;;;;;;;102.50;2227.20;;;;;;5075072;28;20350;-78
2021/12/13 05:16:56;;;;;;;;;;;102.50;2227.20;;;;;;5075472;28;19904;-76
2021/12/13 05:19:29;;;;;;;;;;;102.70;2227.20;;;;;;5075203;28;19932;-76
2021/12/13 05:21:57;;;;;;;;;;;102.40;2227.20;;;;;;5075605;28;19950;-77
2021/12/13 05:24:26;;;;;;;;;;;102.70;2227.20;;;;;;5073916;28;19994;-76
2021/12/13 05:26:54;;;;;;;;;;;102.70;2227.20;;;;;;5073731;28;19915;-76
2021/12/13 05:29:35;;;;;;;;;;;102.60;2227.20;;;;;;5074175;28;19904;-78
2021/12/13 05:32:10;;;;;;;;;;;102.50;2227.20;;;;;;5075160;28;19916;-78
2021/12/13 05:34:43;;;;;;;;;;;102.50;2227.20;;;;;;5075380;28;19908;-77
2021/12/13 05:37:09;;;;;;;;;;;77.70;2227.20;;;;;;5074320;28;19954;-77
2021/12/13 05:39:36;;;;;;;;;;;102.50;2227.20;;;;;;5074801;28;19908;-78
2021/12/13 05:42:09;;;;;;;;;;;102.40;2227.20;;;;;;5073829;28;19952;-76
2021/12/13 05:44:41;;;;;;;;;;;102.40;2227.20;;;;;;5073778;28;19909;-78
2021/12/13 05:47:15;;;;;;;;;;;102.50;2227.20;;;;;;5073740;28;19904;-78
2021/12/13 05:49:43;;;;;;;;;;;102.50;2227.20;;;;;;5073710;28;19969;-76
2021/12/13 05:52:14;;;;;;;;;;;102.60;2227.20;;;;;;5073395;28;19916;-77
2021/12/13 05:54:42;;;;;;;;;;;102.60;2227.20;;;;;;5073705;28;19905;-76
2021/12/13 05:57:21;;;;;;;;;;;102.70;2227.20;;;;;;5074773;28;19904;-78
2021/12/13 05:59:50;;;;;;;;;;;102.40;2227.20;;;;;;5073416;28;19952;-76
2021/12/13 06:02:17;;;;;;;;;;;102.60;2227.20;;;;;;5074524;28;19904;-78
2021/12/13 06:04:43;;;;;;;;;;;102.60;2227.20;;;;;;5073042;28;19904;-76
2021/12/13 06:07:23;;;;;;;;;;;102.50;2227.20;;;;;;5074755;28;19911;-78
2021/12/13 06:09:52;;;;;;;;;;;102.50;2227.20;;;;;;5074131;28;19911;-78
2021/12/13 06:12:24;;;;;;;;;;;102.60;2227.20;;;;;;5073214;28;19912;-78
2021/12/13 06:14:51;;;;;;;;;;;102.50;2227.20;;;;;;5074246;28;19904;-78
2021/12/13 06:17:21;;;;;;;;;;;77.70;2227.20;;;;;;5072495;28;19916;-77
2021/12/13 06:20:02;;;;;;;;;;;77.60;2227.20;;;;;;5073340;28;19915;-76
2021/12/13 06:22:31;;;;;;;;;;;102.40;2227.20;;;;;;5072739;28;20357;-78
2021/12/13 06:24:58;;;;;;;;;;;102.40;2227.20;;;;;;5074325;28;20350;-78
2021/12/13 06:27:26;;;;;;;;;;;102.50;2227.20;;;;;;5073863;28;19957;-76
2021/12/13 06:30:05;;;;;;;;;;;102.40;2227.20;;;;;;5073945;28;20288;-76
2021/12/13 06:32:36;;;;;;;;;;;102.50;2227.20;;;;;;5072840;28;19916;-78
2021/12/13 06:35:28;;;;;;;;;;;102.40;2227.20;;;;;;5072794;28;19916;-77
2021/12/13 06:37:54;;;;;;;;;;;102.50;2227.20;;;;;;5072609;28;19906;-75
2021/12/13 06:40:27;;;;;;;;;;;77.70;2227.20;;;;;;5072587;28;20454;-76
2021/12/13 06:43:00;;;;;;;;;;;102.50;2227.20;;;;;;5072360;28;19908;-75
2021/12/13 06:45:35;;;;;;;;;;;102.70;2227.20;;;;;;5072390;28;19911;-76
2021/12/13 06:48:03;;;;;;;;;;;102.70;2227.20;;;;;;5073767;28;19916;-75
2021/12/13 06:50:31;;;;;;;;;;;102.60;2227.20;;;;;;5071688;28;20338;-75
2021/12/13 06:53:10;;;;;;;;;;;102.60;2227.20;;;;;;5073519;28;19988;-76
2021/12/13 06:55:36;;;;;;;;;;;102.70;2227.20;;;;;;5073240;28;20354;-77
2021/12/13 06:58:10;;;;;;;;;;;102.80;2227.20;;;;;;5073359;28;19909;-76
2021/12/13 07:00:37;;;;;;;;;;;102.60;2227.20;;;;;;5073722;28;19904;-76
2021/12/13 07:03:05;;;;;;;;;;;102.60;2227.20;;;;;;5073332;28;19947;-75
2021/12/13 07:05:32;;;;;;;;;;;102.50;2227.20;;;;;;5073546;28;19910;-78
2021/12/13 07:07:59;;;;;;;;;;;77.70;2227.20;;;;;;5073100;28;19958;-77
2021/12/13 07:10:25;;;;;;;;;;;77.60;2227.20;;;;;;5072030;28;20362;-75
2021/12/13 07:12:54;;;;;;;;;;;77.60;2227.20;;;;;;5071574;28;19916;-77
2021/12/13 07:15:38;;;;;;;;;;;77.60;2227.20;;;;;;5073142;28;19904;-76
2021/12/13 07:18:09;;;;;;;;;;;77.50;2227.20;;;;;;5072604;28;19962;-76
2021/12/13 07:20:36;;;;;;;;;;;77.50;2227.20;;;;;;5072829;28;19919;-75
2021/12/13 07:23:01;;;;;;;;;;;77.30;2227.20;;;;;;5072951;28;19931;-76
2021/12/13 07:25:33;;;;;;;;;;;77.40;2227.20;;;;;;5071381;28;20358;-76
2021/12/13 07:27:59;;;;;;;;;;;77.50;2227.20;;;;;;5071570;28;19904;-77
2021/12/13 07:30:28;;;;;;;;;;;77.70;2227.20;;;;;;5072605;28;19912;-76
2021/12/13 07:32:58;;;;;;;;;;;77.70;2227.20;;;;;;5072658;28;19919;-76
2021/12/13 07:35:29;;;;;;;;;;;77.60;2227.20;;;;;;5071493;28;20037;-75
2021/12/13 07:37:59;;;;;;;;;;;77.60;2227.20;;;;;;5072715;28;19959;-75
2021/12/13 07:40:28;;;;;;;;;;;77.60;2227.20;;;;;;5072776;28;19973;-74
2021/12/13 07:43:03;;;;;;;;;;;77.70;2227.20;;;;;;5071074;28;19904;-75
2021/12/13 07:45:38;;;;;;;;;;;102.50;2227.20;;;;;;5071094;28;19911;-75
2021/12/13 07:48:06;;;;;;;;;;;102.60;2227.20;;;;;;5072583;28;19909;-75
2021/12/13 07:50:33;;;;;;;;;;;102.90;2227.20;;;;;;5072499;28;19908;-76
2021/12/13 07:53:01;;;;;;;;;;;103.00;2227.20;;;;;;5071430;28;19916;-77
2021/12/13 07:55:28;;;;;;;;;;;102.90;2227.20;;;;;;5072406;28;19948;-75
2021/12/13 07:57:55;;;;;;;;;;;102.90;2227.20;;;;;;5072539;28;19905;-76
2021/12/13 08:00:26;;;;;;;;;;;102.80;2227.20;;;;;;5072474;28;19912;-76
2021/12/13 08:02:56;;;;;;;;;;;102.90;2227.20;;;;;;5073422;28;19971;-76
2021/12/13 08:05:23;;;;;;;;;;;102.80;2227.20;;;;;;5075534;28;19909;-76
2021/12/13 08:07:51;;;;;;;;;;;102.50;2227.20;;;;;;5076529;28;20377;-76
2021/12/13 08:10:25;;;;;;;;;;;102.70;2227.20;;;;;;5076745;28;20323;-77
2021/12/13 08:13:00;;;;;;;;;;;102.80;2227.20;;;;;;5075175;28;19923;-78
2021/12/13 08:15:36;;;;;;;;;;;103.00;2227.20;;;;;;5075382;28;19905;-77
2021/12/13 08:18:07;;;;;;;;;;;102.80;2227.20;;;;;;5082237;28;19920;-76
2021/12/13 08:20:32;;;;;;;;;;;102.80;2227.20;;;;;;5086976;28;20010;-79
2021/12/13 08:22:58;;;;;;;;;;;102.90;2227.20;;;;;;5086232;28;20365;-77
2021/12/13 08:25:26;;;;;;;;;;;102.60;2227.20;;;;;;5084209;28;19904;-76
2021/12/13 08:27:54;;;;;;;;;;;102.60;2227.20;;;;;;5077668;28;19934;-76
2021/12/13 08:30:21;;;;;;;;;;;102.60;2227.20;;;;;;5074905;28;20266;-76
2021/12/13 08:32:56;;;;;;;;;;;102.50;2227.20;;;;;;5076110;28;19912;-76
2021/12/13 08:35:21;;;;;;;;;;;102.70;2227.20;;;;;;5076105;28;19908;-76
2021/12/13 08:37:52;;;;;;;;;;;102.80;2227.20;;;;;;5074827;28;19966;-76
2021/12/13 08:40:20;;;;;;;;;;;102.70;2227.20;;;;;;5075051;28;19904;-75
2021/12/13 08:42:46;;;;;;;;;;;102.70;2227.20;;;;;;5074969;28;20376;-76
2021/12/13 08:45:22;;;;;;;;;;;102.80;2227.20;;;;;;5075661;28;19909;-75
2021/12/13 08:47:50;;;;;;;;;;;102.80;2227.20;;;;;;5076310;28;19908;-75
2021/12/13 08:50:28;;;;;;;;;;;102.90;2227.20;;;;;;5074858;28;19970;-78
2021/12/13 08:52:59;;;;;;;;;;;102.90;2227.20;;;;;;5075848;28;19955;-75
2021/12/13 08:55:33;;;;;;;;;;;102.80;2227.20;;;;;;5079139;28;19939;-76
2021/12/13 08:58:12;;;;;;;;;;;103.00;2227.20;;;;;;5083033;28;20006;-75
2021/12/13 09:00:41;;;;;;;;;;;102.90;2227.20;;;;;;5076984;28;19908;-76
2021/12/13 09:03:12;;;;;;;;;;;103.10;2227.20;;;;;;5082290;28;20020;-76
2021/12/13 09:06:01;;;;;;;;;;;102.80;2227.20;;;;;;5068959;28;20266;-75
2021/12/13 09:08:32;;;;;;;;;;;102.70;2227.20;;;;;;5033625;28;19909;-76
2021/12/13 09:11:13;;;;;;;;;;;102.80;2227.20;;;;;;5033244;28;20338;-77
2021/12/13 09:13:41;;;;;;;;;;;102.80;2227.20;;;;;;5015965;28;19916;-75
2021/12/13 09:16:08;;;;;;;;;;;102.50;2227.20;;;;;;5016823;28;19905;-76
2021/12/13 09:18:34;;;;;;;;;;;102.40;2227.20;;;;;;5016334;28;20413;-77
2021/12/13 09:21:00;;;;;;;;;;;102.50;2227.20;;;;;;5033435;28;19913;-78
2021/12/13 09:23:29;;;;;;;;;;;102.50;2227.20;;;;;;5033185;28;19905;-78
2021/12/13 09:26:04;;;;;;;;;;;102.60;2227.20;;;;;;5033542;28;19909;-75
2021/12/13 09:28:32;;;;;;;;;;;102.60;2227.20;;;;;;5033412;28;19906;-76
2021/12/13 09:30:58;;;;;;;;;;;102.80;2227.20;;;;;;5016349;28;19943;-78
2021/12/13 09:33:28;;;;;;;;;;;102.80;2227.20;;;;;;5033225;28;19908;-76
2021/12/13 09:35:59;;;;;;;;;;;102.90;2227.20;;;;;;5033175;28;19905;-79
2021/12/13 09:38:43;;;;;;;;;;;103.00;2227.20;;;;;;5033538;28;19905;-78
2021/12/13 09:41:21;;;;;;;;;;;102.90;2227.20;;;;;;5016496;28;19905;-78
2021/12/13 09:43:56;;;;;;;;;;;102.70;2227.20;;;;;;5033236;28;19912;-79
2021/12/13 09:46:30;;;;;;;;;;;102.70;2227.20;;;;;;5052246;28;19915;-81
2021/12/13 09:48:58;;;;;;;;;;;102.80;2227.20;;;;;;5055277;28;20282;-83
2021/12/13 09:51:38;;;;;;;;;;;102.80;2227.20;;;;;;5054244;28;19909;-78
2021/12/13 09:54:05;;;;;;;;;;;102.80;2227.20;;;;;;5054082;28;19911;-77
2021/12/13 09:56:36;;;;;;;;;;;102.90;2227.20;;;;;;5054438;28;20378;-75
2021/12/13 09:59:11;;;;;;;;;;;103.10;2227.20;;;;;;5054472;28;20285;-76
2021/12/13 10:01:38;;;;;;;;;;;102.80;2227.20;;;;;;5053241;28;19904;-75
2021/12/13 10:04:06;;;;;;;;;;;102.70;2227.20;;;;;;5061123;28;19904;-79
2021/12/13 10:06:36;;;;;;;;;;;102.90;2227.20;;;;;;5087418;28;20102;-78
2021/12/13 10:09:11;;;;;;;;;;;102.90;2227.20;;;;;;5083508;28;20329;-74
2021/12/13 10:11:43;;;;;;;;;;;102.90;2227.20;;;;;;5083203;28;20285;-79
2021/12/13 10:14:09;;;;;;;;;;;102.90;2227.20;;;;;;5077315;28;19931;-78
2021/12/13 10:16:36;;;;;;;;;;;102.70;2227.20;;;;;;5074186;28;19983;-75
2021/12/13 10:19:04;;;;;;;;;;;102.80;2227.20;;;;;;5073356;28;19927;-83
2021/12/13 10:21:31;;;;;;;;;;;102.70;2227.20;;;;;;5073029;28;19944;-77
2021/12/13 10:24:17;;;;;;;;;;;102.80;2227.20;;;;;;5073320;28;19940;-78
2021/12/13 10:26:43;;;;;;;;;;;103.00;2227.20;;;;;;5072125;28;20003;-77
2021/12/13 10:29:10;;;;;;;;;;;103.10;2227.20;;;;;;5072865;28;19904;-79
2021/12/13 10:31:38;;;;;;;;;;;102.90;2227.20;;;;;;5072654;28;19923;-77
2021/12/13 10:34:06;;;;;;;;;;;103.10;2227.20;;;;;;5073261;28;20308;-76
2021/12/13 10:36:32;;;;;;;;;;;103.30;2227.20;;;;;;5073341;28;19913;-75
2021/12/13 10:39:00;;;;;;;;;;;102.80;2227.20;;;;;;5074147;28;20372;-79
2021/12/13 10:41:28;;;;;;;;;;;102.90;2227.20;;;;;;5074104;28;19950;-75
2021/12/13 10:43:55;;;;;;;;;;;103.20;2227.20;;;;;;5073691;28;19912;-75
2021/12/13 10:46:25;;;;;;;;;;;103.00;2227.20;;;;;;5073706;28;19919;-75
2021/12/13 10:48:56;;;;;;;;;;;103.20;2227.20;;;;;;5071921;28;20286;-75
2021/12/13 10:51:32;;;;;;;;;;;102.90;2227.20;;;;;;5072198;28;19978;-78
2021/12/13 10:54:00;;;;;;;;;;;102.80;2227.20;;;;;;5054364;28;19916;-79
2021/12/13 10:56:30;;;;;;;;;;;102.90;2227.20;;;;;;5072196;28;19949;-79
2021/12/13 10:59:03;;;;;;;;;;;102.90;2227.20;;;;;;5072365;28;19931;-74
2021/12/13 11:01:33;;;;;;;;;;;102.80;2227.20;;;;;;5070362;28;19904;-79
2021/12/13 11:04:01;;;;;;;;;;;102.80;2227.20;;;;;;5072254;28;20273;-75
2021/12/13 11:06:27;;;;;;;;;;;102.80;2227.20;;;;;;5072464;28;19904;-78
2021/12/13 11:08:53;;;;;;;;;;;102.60;2227.20;;;;;;5072791;28;19951;-75
2021/12/13 11:11:33;;;;;;;;;;;102.80;2227.20;;;;;;5072063;28;19904;-75
2021/12/13 11:14:00;;;;;;;;;;;102.90;2227.20;;;;;;5072989;28;19912;-79
2021/12/13 11:16:30;;;;;;;;;;;103.10;2227.20;;;;;;5071999;28;19969;-79
2021/12/13 11:18:56;;;;;;;;;;;103.10;2227.20;;;;;;5072268;28;19978;-79
2021/12/13 11:21:27;;;;;;;;;;;103.00;2227.20;;;;;;5071929;28;19909;-77
2021/12/13 11:23:54;;;;;;;;;;;103.00;2227.20;;;;;;5072156;28;20015;-78
2021/12/13 11:26:23;;;;;;;;;;;103.20;2227.20;;;;;;5070351;28;19920;-79
2021/12/13 11:28:49;;;;;;;;;;;128.00;2252.80;;;;;;5056089;28;20415;-77
2021/12/13 11:31:30;;;;;;;;;;;103.30;2227.20;;;;;;5072942;28;19904;-78
2021/12/13 11:33:58;;;;;;;;;;;103.30;2227.20;;;;;;5073050;28;19915;-78
2021/12/13 11:36:33;;;;;;;;;;;128.20;2252.80;;;;;;5073024;28;19904;-78
2021/12/13 11:39:17;;;;;;;;;;;128.30;2252.80;;;;;;5072841;28;19904;-78
2021/12/13 11:42:01;;;;;;;;;;;128.40;2252.80;;;;;;5072986;28;19908;-78
2021/12/13 11:44:27;;;;;;;;;;;128.00;2252.80;;;;;;5071764;28;19904;-75
2021/12/13 11:47:21;;;;;;;;;;;103.30;2227.20;;;;;;5072696;28;20250;-76
2021/12/13 11:49:52;;;;;;;;;;;103.30;2227.20;;;;;;5030635;28;20024;-78
2021/12/13 11:52:20;;;;;;;;;;;128.00;2252.80;;;;;;5030042;28;20355;-78
2021/12/13 11:55:01;;;;;;;;;;;128.10;2252.80;;;;;;5029204;28;19909;-75
2021/12/13 11:57:45;;;;;;;;;;;128.20;2252.80;;;;;;5029009;28;19936;-75
2021/12/13 12:00:19;;;;;;;;;;;103.30;2227.20;;;;;;5037694;28;19912;-75
2021/12/13 12:02:47;;;;;;;;;;;103.00;2227.20;;;;;;5029479;28;19929;-77
2021/12/13 12:05:31;;;;;;;;;;;102.90;2227.20;;;;;;5029811;28;20390;-79
2021/12/13 12:08:15;;;;;;;;;;;102.90;2227.20;;;;;;5035387;28;19944;-77
2021/12/13 12:10:59;;;;;;;;;;;102.80;2227.20;;;;;;5040503;28;19909;-79
2021/12/13 12:13:36;;;;;;;;;;;102.90;2227.20;;;;;;5039574;28;20354;-77
2021/12/13 12:16:02;;;;;;;;;;;102.80;2227.20;;;;;;5039940;28;19995;-78
2021/12/13 12:18:30;;;;;;;;;;;102.70;2227.20;;;;;;5037866;28;19917;-76
2021/12/13 12:21:27;;;;;;;;;;;102.50;2227.20;;;;;;5036948;28;19917;-76
2021/12/13 12:23:53;;;;;;;;;;;102.60;2227.20;;;;;;4971521;28;19914;-74
2021/12/13 12:26:19;;;;;;;;;;;102.80;2227.20;;;;;;4991441;28;19912;-78
2021/12/13 12:28:46;;;;;;;;;;;102.80;2227.20;;;;;;5010689;28;19945;-75
2021/12/13 12:31:12;;;;;;;;;;;103.10;2227.20;;;;;;5009827;28;20386;-79
2021/12/13 12:33:39;;;;;;;;;;;103.10;2227.20;;;;;;5010063;28;19956;-77
2021/12/13 12:36:15;;;;;;;;;;;103.20;2227.20;;;;;;5010398;28;20004;-74
2021/12/13 12:39:18;;;;;;;;;;;128.00;2252.80;;;;;;5008682;28;19956;-78
2021/12/13 12:41:59;;;;;;;;;;;103.10;2227.20;;;;;;5010390;28;19914;-77
2021/12/13 12:44:29;;;;;;;;;;;103.20;2227.20;;;;;;5010784;28;19931;-75
2021/12/13 12:46:56;;;;;;;;;;;103.10;2227.20;;;;;;5010587;28;20003;-74
2021/12/13 12:49:23;;;;;;;;;;;103.30;2227.20;;;;;;4995774;28;19987;-75
2021/12/13 12:51:50;;;;;;;;;;;128.00;2252.80;;;;;;5014273;28;19914;-75
2021/12/13 12:54:19;;;;;;;;;;;103.30;2227.20;;;;;;4997793;28;19992;-79
2021/12/13 12:56:44;;;;;;;;;;;128.20;2252.80;;;;;;4997099;28;20337;-78
2021/12/13 12:59:18;;;;;;;;;;;128.20;2252.80;;;;;;5037743;28;19959;-79
2021/12/13 13:01:47;;;;;;;;;;;128.30;2252.80;;;;;;5084244;28;19908;-75
2021/12/13 13:04:16;;;;;;;;;;;128.20;2252.80;;;;;;5087031;28;19904;-78
2021/12/13 13:06:49;;;;;;;;;;;103.00;2227.20;;;;;;5085259;28;19904;-77
2021/12/13 13:09:15;;;;;;;;;;;103.00;2227.20;;;;;;5078433;28;19913;-77
2021/12/13 13:11:44;;;;;;;;;;;103.00;2227.20;;;;;;5074459;28;19966;-78
2021/12/13 13:14:14;;;;;;;;;;;103.20;2227.20;;;;;;5071194;28;19912;-79
2021/12/13 13:16:53;;;;;;;;;;;128.10;2252.80;;;;;;5074209;28;20007;-78
2021/12/13 13:19:27;;;;;;;;;;;103.20;2227.20;;;;;;5080053;28;19921;-78
2021/12/13 13:21:53;;;;;;;;;;;128.20;2252.80;;;;;;5058372;28;19915;-78
2021/12/13 13:24:19;;;;;;;;;;;103.30;2227.20;;;;;;5074098;28;19905;-79
2021/12/13 13:26:46;;;;;;;;;;;128.00;2252.80;;;;;;5073138;28;20045;-78
2021/12/13 13:29:15;;;;;;;;;;;103.10;2227.20;;;;;;5074057;28;20347;-76
2021/12/13 13:31:55;;;;;;;;;;;103.00;2227.20;;;;;;5073877;28;19916;-77
2021/12/13 13:34:20;;;;;;;;;;;103.30;2227.20;;;;;;5074796;28;20380;-76
2021/12/13 13:36:51;;;;;;;;;;;103.10;2227.20;;;;;;5074503;28;19908;-79
2021/12/13 13:39:25;;;;;;;;;;;103.00;2227.20;;;;;;5074196;28;19952;-76
2021/12/13 13:42:11;;;;;;;;;;;103.00;2227.20;;;;;;5066890;28;19904;-76
2021/12/13 13:45:03;;;;;;;;;;;102.90;2227.20;;;;;;5073037;28;19908;-78
2021/12/13 13:47:30;;;;;;;;;;;103.20;2227.20;;;;;;5064976;28;19905;-76
2021/12/13 13:49:58;;;;;;;;;;;102.90;2227.20;;;;;;5073884;28;20397;-77
2021/12/13 13:52:25;;;;;;;;;;;103.00;2227.20;;;;;;5073699;28;19919;-75
2021/12/13 13:54:56;;;;;;;;;;;103.10;2227.20;;;;;;5073634;28;19915;-79
2021/12/13 13:57:24;;;;;;;;;;;103.30;2227.20;;;;;;5073919;28;20523;-81
2021/12/13 13:59:50;;;;;;;;;;;102.90;2227.20;;;;;;5073334;28;19948;-81
2021/12/13 14:02:23;;;;;;;;;;;103.20;2227.20;;;;;;5067860;28;19908;-79
2021/12/13 14:04:54;;;;;;;;;;;103.30;2227.20;;;;;;5065344;28;19912;-78
2021/12/13 14:07:22;;;;;;;;;;;128.00;2252.80;;;;;;5073992;28;19927;-77
2021/12/13 14:09:51;;;;;;;;;;;103.00;2227.20;;;;;;5073711;28;19909;-74
2021/12/13 14:12:23;;;;;;;;;;;103.20;2227.20;;;;;;5072471;28;20401;-73